sensor_id;sensor_type;location;lat;lon;timestamp;temperature;humidity
57030;DHT22;42920;45.306;20.448;2023-06-04T00:00:05;436.10;2355.20
57030;DHT22;42920;45.306;20.448;2023-06-04T00:02:32;436.10;2355.20
57030;DHT22;42920;45.306;20.448;2023-06-04T00:04:58;436.00;2355.20
57030;DHT22;42920;45.306;20.448;2023-06-04T00:07:23;435.90;2355.20
57030;DHT22;42920;45.306;20.448;2023-06-04T00:13:12;436.00;2355.20
57030;DHT22;42920;45.306;20.448;2023-06-04T00:15:38;435.80;2355.20
57030;DHT22;42920;45.306;20.448;2023-06-04T00:18:04;435.70;2355.20
57030;DHT22;42920;45.306;20.448;2023-06-04T00:20:30;410.50;2355.20
57030;DHT22;42920;45.306;20.448;2023-06-04T00:22:55;435.50;2355.20
57030;DHT22;42920;45.306;20.448;2023-06-04T00:25:21;435.70;2355.20
57030;DHT22;42920;45.306;20.448;2023-06-04T00:27:47;435.80;2355.20
57030;DHT22;42920;45.306;20.448;2023-06-04T00:30:13;435.70;2355.20
57030;DHT22;42920;45.306;20.448;2023-06-04T00:32:39;435.50;2355.20
57030;DHT22;42920;45.306;20.448;2023-06-04T00:35:05;435.50;2355.20
57030;DHT22;42920;45.306;20.448;2023-06-04T00:37:31;435.50;2355.20
57030;DHT22;42920;45.306;20.448;2023-06-04T00:39:58;435.60;2355.20
57030;DHT22;42920;45.306;20.448;2023-06-04T00:42:24;435.50;2355.20
57030;DHT22;42920;45.306;20.448;2023-06-04T00:44:49;435.70;2355.20
57030;DHT22;42920;45.306;20.448;2023-06-04T00:47:16;435.70;2355.20
57030;DHT22;42920;45.306;20.448;2023-06-04T00:49:42;435.70;2355.20
57030;DHT22;42920;45.306;20.448;2023-06-04T00:52:12;435.70;2355.20
57030;DHT22;42920;45.306;20.448;2023-06-04T00:54:39;435.70;2355.20
57030;DHT22;42920;45.306;20.448;2023-06-04T00:57:06;435.80;2355.20
57030;DHT22;42920;45.306;20.448;2023-06-04T00:59:33;435.60;2355.20
57030;DHT22;42920;45.306;20.448;2023-06-04T01:02:02;435.70;2355.20
57030;DHT22;42920;45.306;20.448;2023-06-04T01:04:41;435.80;2355.20
57030;DHT22;42920;45.306;20.448;2023-06-04T01:07:09;435.80;2355.20
57030;DHT22;42920;45.306;20.448;2023-06-04T01:09:38;435.90;2355.20
57030;DHT22;42920;45.306;20.448;2023-06-04T01:12:05;435.80;2355.20
57030;DHT22;42920;45.306;20.448;2023-06-04T01:14:31;435.80;2355.20
57030;DHT22;42920;45.306;20.448;2023-06-04T01:17:34;435.80;2355.20
57030;DHT22;42920;45.306;20.448;2023-06-04T01:25:34;435.60;2355.20
57030;DHT22;42920;45.306;20.448;2023-06-04T01:28:05;435.60;2355.20
57030;DHT22;42920;45.306;20.448;2023-06-04T01:30:42;435.60;2355.20
57030;DHT22;42920;45.306;20.448;2023-06-04T01:33:10;435.50;2355.20
57030;DHT22;42920;45.306;20.448;2023-06-04T01:35:36;435.60;2355.20
57030;DHT22;42920;45.306;20.448;2023-06-04T01:38:02;435.60;2355.20
57030;DHT22;42920;45.306;20.448;2023-06-04T01:40:28;435.70;2355.20
57030;DHT22;42920;45.306;20.448;2023-06-04T01:42:54;435.80;2355.20
57030;DHT22;42920;45.306;20.448;2023-06-04T01:45:21;435.80;2355.20
57030;DHT22;42920;45.306;20.448;2023-06-04T01:47:48;435.80;2355.20
57030;DHT22;42920;45.306;20.448;2023-06-04T01:50:13;435.70;2355.20
57030;DHT22;42920;45.306;20.448;2023-06-04T01:52:40;435.60;2355.20
57030;DHT22;42920;45.306;20.448;2023-06-04T01:55:07;435.60;2355.20
57030;DHT22;42920;45.306;20.448;2023-06-04T01:57:34;435.60;2355.20
57030;DHT22;42920;45.306;20.448;2023-06-04T02:00:05;435.60;2355.20
57030;DHT22;42920;45.306;20.448;2023-06-04T02:02:35;435.50;2355.20
57030;DHT22;42920;45.306;20.448;2023-06-04T02:05:03;435.50;2355.20
57030;DHT22;42920;45.306;20.448;2023-06-04T02:07:29;435.50;2355.20
57030;DHT22;42920;45.306;20.448;2023-06-04T02:09:56;435.60;2355.20
57030;DHT22;42920;45.306;20.448;2023-06-04T02:12:22;435.60;2355.20
57030;DHT22;42920;45.306;20.448;2023-06-04T02:14:48;435.60;2355.20
57030;DHT22;42920;45.306;20.448;2023-06-04T02:17:13;435.70;2355.20
57030;DHT22;42920;45.306;20.448;2023-06-04T02:19:42;435.50;2355.20
57030;DHT22;42920;45.306;20.448;2023-06-04T02:22:18;435.40;2355.20
57030;DHT22;42920;45.306;20.448;2023-06-04T02:24:45;435.40;2355.20
57030;DHT22;42920;45.306;20.448;2023-06-04T02:27:11;435.50;2355.20
57030;DHT22;42920;45.306;20.448;2023-06-04T02:29:38;435.50;2355.20
57030;DHT22;42920;45.306;20.448;2023-06-04T02:32:04;435.30;2355.20
57030;DHT22;42920;45.306;20.448;2023-06-04T02:34:30;435.20;2355.20
57030;DHT22;42920;45.306;20.448;2023-06-04T02:36:56;410.50;2355.20
57030;DHT22;42920;45.306;20.448;2023-06-04T02:39:22;410.50;2355.20
57030;DHT22;42920;45.306;20.448;2023-06-04T02:41:47;410.30;2355.20
57030;DHT22;42920;45.306;20.448;2023-06-04T02:44:13;410.40;2355.20
57030;DHT22;42920;45.306;20.448;2023-06-04T02:46:39;410.20;2355.20
57030;DHT22;42920;45.306;20.448;2023-06-04T02:49:05;410.10;2355.20
57030;DHT22;42920;45.306;20.448;2023-06-04T02:51:30;410.00;2355.20
57030;DHT22;42920;45.306;20.448;2023-06-04T02:53:58;410.00;2355.20
57030;DHT22;42920;45.306;20.448;2023-06-04T02:56:23;410.00;2355.20
57030;DHT22;42920;45.306;20.448;2023-06-04T02:58:55;410.00;2355.20
57030;DHT22;42920;45.306;20.448;2023-06-04T03:01:25;410.30;2355.20
57030;DHT22;42920;45.306;20.448;2023-06-04T03:03:52;410.40;2355.20
57030;DHT22;42920;45.306;20.448;2023-06-04T03:06:19;410.40;2355.20
57030;DHT22;42920;45.306;20.448;2023-06-04T03:08:49;410.30;2355.20
57030;DHT22;42920;45.306;20.448;2023-06-04T03:11:16;410.30;2355.20
57030;DHT22;42920;45.306;20.448;2023-06-04T03:13:41;410.30;2355.20
57030;DHT22;42920;45.306;20.448;2023-06-04T03:16:07;410.40;2355.20
57030;DHT22;42920;45.306;20.448;2023-06-04T03:18:40;410.40;2355.20
57030;DHT22;42920;45.306;20.448;2023-06-04T03:21:06;410.50;2355.20
57030;DHT22;42920;45.306;20.448;2023-06-04T03:23:33;410.50;2355.20
57030;DHT22;42920;45.306;20.448;2023-06-04T03:26:02;435.30;2355.20
57030;DHT22;42920;45.306;20.448;2023-06-04T03:28:28;435.30;2355.20
57030;DHT22;42920;45.306;20.448;2023-06-04T03:30:53;435.30;2355.20
57030;DHT22;42920;45.306;20.448;2023-06-04T03:33:19;435.30;2355.20
57030;DHT22;42920;45.306;20.448;2023-06-04T03:35:45;435.40;2355.20
57030;DHT22;42920;45.306;20.448;2023-06-04T03:38:11;435.50;2355.20
57030;DHT22;42920;45.306;20.448;2023-06-04T03:40:36;435.50;2355.20
57030;DHT22;42920;45.306;20.448;2023-06-04T03:43:02;435.50;2355.20
57030;DHT22;42920;45.306;20.448;2023-06-04T03:45:30;435.50;2355.20
57030;DHT22;42920;45.306;20.448;2023-06-04T03:47:56;435.60;2355.20
57030;DHT22;42920;45.306;20.448;2023-06-04T03:50:21;435.70;2355.20
57030;DHT22;42920;45.306;20.448;2023-06-04T03:52:50;435.80;2355.20
57030;DHT22;42920;45.306;20.448;2023-06-04T03:55:16;435.80;2355.20
57030;DHT22;42920;45.306;20.448;2023-06-04T03:57:42;435.80;2355.20
57030;DHT22;42920;45.306;20.448;2023-06-04T04:00:09;435.90;2355.20
57030;DHT22;42920;45.306;20.448;2023-06-04T04:02:41;435.90;2355.20
57030;DHT22;42920;45.306;20.448;2023-06-04T04:05:07;436.00;2355.20
57030;DHT22;42920;45.306;20.448;2023-06-04T04:07:34;436.10;2355.20
57030;DHT22;42920;45.306;20.448;2023-06-04T04:10:00;460.80;2380.80
57030;DHT22;42920;45.306;20.448;2023-06-04T04:12:26;460.80;2380.80
57030;DHT22;42920;45.306;20.448;2023-06-04T04:14:52;460.90;2380.80
57030;DHT22;42920;45.306;20.448;2023-06-04T04:17:17;460.90;2380.80
57030;DHT22;42920;45.306;20.448;2023-06-04T04:19:43;460.90;2380.80
57030;DHT22;42920;45.306;20.448;2023-06-04T04:22:11;460.90;2380.80
57030;DHT22;42920;45.306;20.448;2023-06-04T04:24:36;461.00;2380.80
57030;DHT22;42920;45.306;20.448;2023-06-04T04:27:04;461.10;2380.80
57030;DHT22;42920;45.306;20.448;2023-06-04T04:29:30;461.20;2380.80
57030;DHT22;42920;45.306;20.448;2023-06-04T04:32:00;461.20;2380.80
57030;DHT22;42920;45.306;20.448;2023-06-04T04:34:27;461.20;2380.80
57030;DHT22;42920;45.306;20.448;2023-06-04T04:36:53;461.20;2380.80
57030;DHT22;42920;45.306;20.448;2023-06-04T04:39:23;461.30;2380.80
57030;DHT22;42920;45.306;20.448;2023-06-04T04:41:53;461.50;2380.80
57030;DHT22;42920;45.306;20.448;2023-06-04T04:44:19;461.50;2380.80
57030;DHT22;42920;45.306;20.448;2023-06-04T04:46:45;461.60;2380.80
57030;DHT22;42920;45.306;20.448;2023-06-04T04:49:10;461.70;2380.80
57030;DHT22;42920;45.306;20.448;2023-06-04T04:51:36;461.70;2380.80
57030;DHT22;42920;45.306;20.448;2023-06-04T04:54:02;461.70;2380.80
57030;DHT22;42920;45.306;20.448;2023-06-04T04:56:28;486.40;2380.80
57030;DHT22;42920;45.306;20.448;2023-06-04T04:58:54;486.40;2380.80
57030;DHT22;42920;45.306;20.448;2023-06-04T05:01:20;486.60;2380.80
57030;DHT22;42920;45.306;20.448;2023-06-04T05:03:46;486.50;2380.80
57030;DHT22;42920;45.306;20.448;2023-06-04T05:06:12;486.80;2380.80
57030;DHT22;42920;45.306;20.448;2023-06-04T05:08:38;486.80;2380.80
57030;DHT22;42920;45.306;20.448;2023-06-04T05:11:04;486.80;2380.80
57030;DHT22;42920;45.306;20.448;2023-06-04T05:13:29;486.80;2380.80
57030;DHT22;42920;45.306;20.448;2023-06-04T05:15:55;486.80;2380.80
57030;DHT22;42920;45.306;20.448;2023-06-04T05:18:22;486.80;2380.80
57030;DHT22;42920;45.306;20.448;2023-06-04T05:21:00;486.80;2380.80
57030;DHT22;42920;45.306;20.448;2023-06-04T05:23:28;486.90;2380.80
57030;DHT22;42920;45.306;20.448;2023-06-04T05:25:56;486.90;2380.80
57030;DHT22;42920;45.306;20.448;2023-06-04T05:28:22;487.00;2380.80
57030;DHT22;42920;45.306;20.448;2023-06-04T05:30:53;486.90;2380.80
57030;DHT22;42920;45.306;20.448;2023-06-04T05:33:25;486.90;2380.80
57030;DHT22;42920;45.306;20.448;2023-06-04T05:35:50;486.90;2380.80
57030;DHT22;42920;45.306;20.448;2023-06-04T05:38:25;487.00;2380.80
57030;DHT22;42920;45.306;20.448;2023-06-04T05:40:51;487.10;2380.80
57030;DHT22;42920;45.306;20.448;2023-06-04T05:43:23;487.20;2380.80
57030;DHT22;42920;45.306;20.448;2023-06-04T05:45:49;487.10;2380.80
57030;DHT22;42920;45.306;20.448;2023-06-04T05:48:15;487.10;2380.80
57030;DHT22;42920;45.306;20.448;2023-06-04T05:50:41;487.30;2380.80
57030;DHT22;42920;45.306;20.448;2023-06-04T05:53:07;487.30;2380.80
57030;DHT22;42920;45.306;20.448;2023-06-04T05:55:32;512.00;2380.80
57030;DHT22;42920;45.306;20.448;2023-06-04T05:57:58;512.10;2380.80
57030;DHT22;42920;45.306;20.448;2023-06-04T06:00:24;512.30;2380.80
57030;DHT22;42920;45.306;20.448;2023-06-04T06:02:50;512.30;2380.80
57030;DHT22;42920;45.306;20.448;2023-06-04T06:05:17;512.30;2380.80
57030;DHT22;42920;45.306;20.448;2023-06-04T06:07:44;512.50;2380.80
57030;DHT22;42920;45.306;20.448;2023-06-04T06:10:10;512.60;2380.80
57030;DHT22;42920;45.306;20.448;2023-06-04T06:12:36;512.60;2380.80
57030;DHT22;42920;45.306;20.448;2023-06-04T06:15:01;512.60;2380.80
57030;DHT22;42920;45.306;20.448;2023-06-04T06:17:27;512.80;2380.80
57030;DHT22;42920;45.306;20.448;2023-06-04T06:19:54;512.80;2380.80
57030;DHT22;42920;45.306;20.448;2023-06-04T06:22:19;512.90;2380.80
57030;DHT22;42920;45.306;20.448;2023-06-04T06:24:45;537.60;2406.40
57030;DHT22;42920;45.306;20.448;2023-06-04T06:27:14;537.60;2406.40
57030;DHT22;42920;45.306;20.448;2023-06-04T06:29:40;537.70;2406.40
57030;DHT22;42920;45.306;20.448;2023-06-04T06:32:07;537.70;2406.40
57030;DHT22;42920;45.306;20.448;2023-06-04T06:34:33;537.70;2406.40
57030;DHT22;42920;45.306;20.448;2023-06-04T06:36:58;537.90;2406.40
57030;DHT22;42920;45.306;20.448;2023-06-04T06:39:24;537.90;2406.40
57030;DHT22;42920;45.306;20.448;2023-06-04T06:41:50;538.00;2406.40
57030;DHT22;42920;45.306;20.448;2023-06-04T06:44:15;537.90;2406.40
57030;DHT22;42920;45.306;20.448;2023-06-04T06:46:41;538.00;2406.40
57030;DHT22;42920;45.306;20.448;2023-06-04T06:49:07;538.00;2406.40
57030;DHT22;42920;45.306;20.448;2023-06-04T06:51:33;538.00;2406.40
57030;DHT22;42920;45.306;20.448;2023-06-04T06:53:59;538.00;2406.40
57030;DHT22;42920;45.306;20.448;2023-06-04T06:56:24;538.20;2406.40
57030;DHT22;42920;45.306;20.448;2023-06-04T06:58:50;538.30;2406.40
57030;DHT22;42920;45.306;20.448;2023-06-04T07:01:17;538.30;2406.40
57030;DHT22;42920;45.306;20.448;2023-06-04T07:03:42;538.50;2406.40
57030;DHT22;42920;45.306;20.448;2023-06-04T07:06:08;538.30;2406.40
57030;DHT22;42920;45.306;20.448;2023-06-04T07:08:34;538.50;2406.40
57030;DHT22;42920;45.306;20.448;2023-06-04T07:11:02;563.20;2432.00
57030;DHT22;42920;45.306;20.448;2023-06-04T07:13:28;563.40;2432.00
57030;DHT22;42920;45.306;20.448;2023-06-04T07:15:54;563.30;2432.00
57030;DHT22;42920;45.306;20.448;2023-06-04T07:18:20;563.30;2432.00
57030;DHT22;42920;45.306;20.448;2023-06-04T07:20:46;563.30;2432.00
57030;DHT22;42920;45.306;20.448;2023-06-04T07:23:11;563.40;2432.00
57030;DHT22;42920;45.306;20.448;2023-06-04T07:25:37;563.50;2432.00
57030;DHT22;42920;45.306;20.448;2023-06-04T07:28:03;563.70;2432.00
57030;DHT22;42920;45.306;20.448;2023-06-04T07:30:30;564.00;2432.00
57030;DHT22;42920;45.306;20.448;2023-06-04T07:32:59;563.90;2432.00
57030;DHT22;42920;45.306;20.448;2023-06-04T07:35:24;563.80;2432.00
57030;DHT22;42920;45.306;20.448;2023-06-04T07:37:51;564.10;2432.00
57030;DHT22;42920;45.306;20.448;2023-06-04T07:40:17;588.80;2432.00
57030;DHT22;42920;45.306;20.448;2023-06-04T07:42:46;564.10;2432.00
57030;DHT22;42920;45.306;20.448;2023-06-04T07:45:15;564.10;2432.00
57030;DHT22;42920;45.306;20.448;2023-06-04T07:47:42;588.80;2432.00
57030;DHT22;42920;45.306;20.448;2023-06-04T07:50:08;564.10;2432.00
57030;DHT22;42920;45.306;20.448;2023-06-04T07:52:33;588.90;2432.00
57030;DHT22;42920;45.306;20.448;2023-06-04T07:55:00;589.00;2432.00
57030;DHT22;42920;45.306;20.448;2023-06-04T07:57:26;589.00;2432.00
57030;DHT22;42920;45.306;20.448;2023-06-04T07:59:52;589.10;2432.00
57030;DHT22;42920;45.306;20.448;2023-06-04T08:02:18;589.10;2432.00
57030;DHT22;42920;45.306;20.448;2023-06-04T08:04:44;589.20;2432.00
57030;DHT22;42920;45.306;20.448;2023-06-04T08:07:11;589.20;2432.00
57030;DHT22;42920;45.306;20.448;2023-06-04T08:09:37;589.20;2432.00
57030;DHT22;42920;45.306;20.448;2023-06-04T08:12:03;589.20;2432.00
57030;DHT22;42920;45.306;20.448;2023-06-04T08:14:29;589.40;2432.00
57030;DHT22;42920;45.306;20.448;2023-06-04T08:16:54;589.30;2432.00
57030;DHT22;42920;45.306;20.448;2023-06-04T08:19:20;589.10;2432.00
57030;DHT22;42920;45.306;20.448;2023-06-04T08:21:46;589.10;2432.00
57030;DHT22;42920;45.306;20.448;2023-06-04T08:24:12;589.10;2432.00
57030;DHT22;42920;45.306;20.448;2023-06-04T08:26:38;589.20;2432.00
57030;DHT22;42920;45.306;20.448;2023-06-04T08:29:05;589.20;2432.00
57030;DHT22;42920;45.306;20.448;2023-06-04T08:31:31;589.10;2432.00
57030;DHT22;42920;45.306;20.448;2023-06-04T08:33:57;589.10;2432.00
57030;DHT22;42920;45.306;20.448;2023-06-04T08:36:23;589.20;2432.00
57030;DHT22;42920;45.306;20.448;2023-06-04T08:38:49;589.20;2432.00
57030;DHT22;42920;45.306;20.448;2023-06-04T08:44:16;589.30;2432.00
57030;DHT22;42920;45.306;20.448;2023-06-04T08:46:43;589.40;2432.00
57030;DHT22;42920;45.306;20.448;2023-06-04T08:49:12;589.30;2432.00
57030;DHT22;42920;45.306;20.448;2023-06-04T08:51:38;589.30;2432.00
57030;DHT22;42920;45.306;20.448;2023-06-04T08:54:07;589.40;2432.00
57030;DHT22;42920;45.306;20.448;2023-06-04T08:56:34;589.50;2432.00
57030;DHT22;42920;45.306;20.448;2023-06-04T08:59:03;589.60;2432.00
57030;DHT22;42920;45.306;20.448;2023-06-04T09:01:32;589.60;2432.00
57030;DHT22;42920;45.306;20.448;2023-06-04T09:04:01;589.50;2432.00
57030;DHT22;42920;45.306;20.448;2023-06-04T09:06:27;589.60;2432.00
57030;DHT22;42920;45.306;20.448;2023-06-04T09:08:56;589.60;2432.00
57030;DHT22;42920;45.306;20.448;2023-06-04T09:11:27;589.70;2432.00
57030;DHT22;42920;45.306;20.448;2023-06-04T09:13:59;614.40;2432.00
57030;DHT22;42920;45.306;20.448;2023-06-04T09:16:25;614.50;2432.00
57030;DHT22;42920;45.306;20.448;2023-06-04T09:18:51;614.40;2355.20
57030;DHT22;42920;45.306;20.448;2023-06-04T09:21:17;589.70;2432.00
57030;DHT22;42920;45.306;20.448;2023-06-04T09:23:46;614.50;2406.40
57030;DHT22;42920;45.306;20.448;2023-06-04T09:26:12;614.70;2432.00
57030;DHT22;42920;45.306;20.448;2023-06-04T09:28:43;614.50;2329.60
57030;DHT22;42920;45.306;20.448;2023-06-04T09:31:09;614.40;2380.80
57030;DHT22;42920;45.306;20.448;2023-06-04T09:33:46;614.60;2432.00
57030;DHT22;42920;45.306;20.448;2023-06-04T09:38:39;614.90;2278.40
57030;DHT22;42920;45.306;20.448;2023-06-04T09:41:11;615.00;2227.20
57030;DHT22;42920;45.306;20.448;2023-06-04T09:43:37;614.90;2227.20
57030;DHT22;42920;45.306;20.448;2023-06-04T09:46:10;614.90;2201.60
57030;DHT22;42920;45.306;20.448;2023-06-04T09:48:36;615.00;2304.00
57030;DHT22;42920;45.306;20.448;2023-06-04T09:51:14;615.10;2022.40
57030;DHT22;42920;45.306;20.448;2023-06-04T09:53:58;615.10;2048.00
57030;DHT22;42920;45.306;20.448;2023-06-04T09:56:24;614.90;1996.80
57030;DHT22;42920;45.306;20.448;2023-06-04T09:59:00;614.80;2073.60
57030;DHT22;42920;45.306;20.448;2023-06-04T10:01:28;614.80;1996.80
57030;DHT22;42920;45.306;20.448;2023-06-04T10:03:54;615.20;2124.80
57030;DHT22;42920;45.306;20.448;2023-06-04T10:06:21;640.00;1920.00
57030;DHT22;42920;45.306;20.448;2023-06-04T10:08:49;640.30;1894.40
57030;DHT22;42920;45.306;20.448;2023-06-04T10:11:20;640.40;1945.60
57030;DHT22;42920;45.306;20.448;2023-06-04T10:13:56;640.10;1868.80
57030;DHT22;42920;45.306;20.448;2023-06-04T10:16:25;640.40;1843.20
57030;DHT22;42920;45.306;20.448;2023-06-04T10:18:52;640.30;1766.40
57030;DHT22;42920;45.306;20.448;2023-06-04T10:21:20;640.20;1792.00
57030;DHT22;42920;45.306;20.448;2023-06-04T10:23:47;640.10;1766.40
57030;DHT22;42920;45.306;20.448;2023-06-04T10:26:16;640.00;1766.40
57030;DHT22;42920;45.306;20.448;2023-06-04T10:28:42;640.10;1792.00
57030;DHT22;42920;45.306;20.448;2023-06-04T10:31:12;640.30;1792.00
57030;DHT22;42920;45.306;20.448;2023-06-04T10:33:39;640.20;1792.00
57030;DHT22;42920;45.306;20.448;2023-06-04T10:36:21;640.10;1715.20
57030;DHT22;42920;45.306;20.448;2023-06-04T10:38:54;640.30;1740.80
57030;DHT22;42920;45.306;20.448;2023-06-04T10:41:21;640.40;1715.20
57030;DHT22;42920;45.306;20.448;2023-06-04T10:43:52;640.50;1715.20
57030;DHT22;42920;45.306;20.448;2023-06-04T10:46:19;640.60;1740.80
57030;DHT22;42920;45.306;20.448;2023-06-04T10:48:49;640.60;1689.60
57030;DHT22;42920;45.306;20.448;2023-06-04T10:51:16;640.70;1766.40
57030;DHT22;42920;45.306;20.448;2023-06-04T10:53:53;640.60;1740.80
57030;DHT22;42920;45.306;20.448;2023-06-04T10:56:31;640.50;1715.20
57030;DHT22;42920;45.306;20.448;2023-06-04T10:59:16;640.70;1740.80
57030;DHT22;42920;45.306;20.448;2023-06-04T11:01:43;640.80;1715.20
57030;DHT22;42920;45.306;20.448;2023-06-04T11:04:22;665.60;1740.80
57030;DHT22;42920;45.306;20.448;2023-06-04T11:07:00;640.90;1689.60
57030;DHT22;42920;45.306;20.448;2023-06-04T11:09:27;640.90;1664.00
57030;DHT22;42920;45.306;20.448;2023-06-04T11:11:59;640.70;1612.80
57030;DHT22;42920;45.306;20.448;2023-06-04T11:14:26;640.80;1689.60
57030;DHT22;42920;45.306;20.448;2023-06-04T11:16:51;640.80;1638.40
57030;DHT22;42920;45.306;20.448;2023-06-04T11:19:17;665.70;1664.00
57030;DHT22;42920;45.306;20.448;2023-06-04T11:21:44;665.90;1638.40
57030;DHT22;42920;45.306;20.448;2023-06-04T11:24:12;665.60;1664.00
57030;DHT22;42920;45.306;20.448;2023-06-04T11:26:38;640.70;1664.00
57030;DHT22;42920;45.306;20.448;2023-06-04T11:29:09;665.90;1740.80
57030;DHT22;42920;45.306;20.448;2023-06-04T11:31:43;666.20;1664.00
57030;DHT22;42920;45.306;20.448;2023-06-04T11:34:10;666.20;1664.00
57030;DHT22;42920;45.306;20.448;2023-06-04T11:36:39;666.10;1689.60
57030;DHT22;42920;45.306;20.448;2023-06-04T11:39:05;666.00;1638.40
57030;DHT22;42920;45.306;20.448;2023-06-04T11:41:35;666.30;1689.60
57030;DHT22;42920;45.306;20.448;2023-06-04T11:44:06;666.20;1689.60
57030;DHT22;42920;45.306;20.448;2023-06-04T11:46:33;666.00;1664.00
57030;DHT22;42920;45.306;20.448;2023-06-04T11:48:59;666.00;1664.00
57030;DHT22;42920;45.306;20.448;2023-06-04T11:51:26;665.90;1638.40
57030;DHT22;42920;45.306;20.448;2023-06-04T11:53:52;665.70;1612.80
57030;DHT22;42920;45.306;20.448;2023-06-04T11:56:17;666.20;1689.60
57030;DHT22;42920;45.306;20.448;2023-06-04T11:58:43;666.00;1664.00
57030;DHT22;42920;45.306;20.448;2023-06-04T12:01:12;666.10;1664.00
57030;DHT22;42920;45.306;20.448;2023-06-04T12:03:42;666.20;1689.60
57030;DHT22;42920;45.306;20.448;2023-06-04T12:06:15;666.40;1612.80
57030;DHT22;42920;45.306;20.448;2023-06-04T12:08:54;666.50;1638.40
57030;DHT22;42920;45.306;20.448;2023-06-04T12:11:26;666.30;1612.80
57030;DHT22;42920;45.306;20.448;2023-06-04T12:13:53;666.30;1664.00
57030;DHT22;42920;45.306;20.448;2023-06-04T12:16:19;666.40;1664.00
57030;DHT22;42920;45.306;20.448;2023-06-04T12:18:45;666.20;1638.40
57030;DHT22;42920;45.306;20.448;2023-06-04T12:21:24;666.50;1689.60
57030;DHT22;42920;45.306;20.448;2023-06-04T12:24:13;666.50;1715.20
57030;DHT22;42920;45.306;20.448;2023-06-04T12:26:40;691.30;1689.60
57030;DHT22;42920;45.306;20.448;2023-06-04T12:29:11;666.50;1612.80
57030;DHT22;42920;45.306;20.448;2023-06-04T12:31:39;691.40;1612.80
57030;DHT22;42920;45.306;20.448;2023-06-04T12:34:05;691.20;1587.20
57030;DHT22;42920;45.306;20.448;2023-06-04T12:36:32;691.20;1612.80
57030;DHT22;42920;45.306;20.448;2023-06-04T12:39:02;691.30;1638.40
57030;DHT22;42920;45.306;20.448;2023-06-04T12:41:28;666.50;1638.40
57030;DHT22;42920;45.306;20.448;2023-06-04T12:43:55;691.20;1664.00
57030;DHT22;42920;45.306;20.448;2023-06-04T12:46:21;666.30;1638.40
57030;DHT22;42920;45.306;20.448;2023-06-04T12:48:49;666.30;1638.40
57030;DHT22;42920;45.306;20.448;2023-06-04T12:51:14;666.50;1638.40
57030;DHT22;42920;45.306;20.448;2023-06-04T12:53:43;666.50;1689.60
57030;DHT22;42920;45.306;20.448;2023-06-04T12:56:09;666.40;1664.00
57030;DHT22;42920;45.306;20.448;2023-06-04T12:58:35;691.40;1664.00
57030;DHT22;42920;45.306;20.448;2023-06-04T13:01:01;691.60;1638.40
57030;DHT22;42920;45.306;20.448;2023-06-04T13:03:27;691.40;1638.40
57030;DHT22;42920;45.306;20.448;2023-06-04T13:05:53;691.20;1638.40
57030;DHT22;42920;45.306;20.448;2023-06-04T13:08:19;691.30;1638.40
57030;DHT22;42920;45.306;20.448;2023-06-04T13:10:50;691.30;1664.00
57030;DHT22;42920;45.306;20.448;2023-06-04T13:13:19;691.40;1689.60
57030;DHT22;42920;45.306;20.448;2023-06-04T13:15:46;691.40;1689.60
57030;DHT22;42920;45.306;20.448;2023-06-04T13:18:11;691.20;1664.00
57030;DHT22;42920;45.306;20.448;2023-06-04T13:20:39;691.40;1715.20
57030;DHT22;42920;45.306;20.448;2023-06-04T13:23:05;666.50;1689.60
57030;DHT22;42920;45.306;20.448;2023-06-04T13:25:31;666.20;1664.00
57030;DHT22;42920;45.306;20.448;2023-06-04T13:27:59;666.20;1740.80
57030;DHT22;42920;45.306;20.448;2023-06-04T13:30:25;666.30;1715.20
57030;DHT22;42920;45.306;20.448;2023-06-04T13:32:52;666.50;1664.00
57030;DHT22;42920;45.306;20.448;2023-06-04T13:35:17;666.50;1689.60
57030;DHT22;42920;45.306;20.448;2023-06-04T13:37:43;691.20;1740.80
57030;DHT22;42920;45.306;20.448;2023-06-04T13:40:09;691.40;1638.40
57030;DHT22;42920;45.306;20.448;2023-06-04T13:42:35;666.50;1664.00
57030;DHT22;42920;45.306;20.448;2023-06-04T13:45:01;691.20;1638.40
57030;DHT22;42920;45.306;20.448;2023-06-04T13:47:27;666.50;1612.80
57030;DHT22;42920;45.306;20.448;2023-06-04T13:49:52;666.50;1587.20
57030;DHT22;42920;45.306;20.448;2023-06-04T13:52:18;666.50;1612.80
57030;DHT22;42920;45.306;20.448;2023-06-04T13:54:44;691.20;1664.00
57030;DHT22;42920;45.306;20.448;2023-06-04T13:57:09;666.50;1561.60
57030;DHT22;42920;45.306;20.448;2023-06-04T13:59:37;691.20;1587.20
57030;DHT22;42920;45.306;20.448;2023-06-04T14:02:03;691.20;1612.80
57030;DHT22;42920;45.306;20.448;2023-06-04T14:04:29;666.40;1587.20
57030;DHT22;42920;45.306;20.448;2023-06-04T14:06:55;666.50;1587.20
57030;DHT22;42920;45.306;20.448;2023-06-04T14:09:21;666.40;1587.20
57030;DHT22;42920;45.306;20.448;2023-06-04T14:11:46;666.10;1561.60
57030;DHT22;42920;45.306;20.448;2023-06-04T14:14:19;666.20;1587.20
57030;DHT22;42920;45.306;20.448;2023-06-04T14:16:45;666.30;1638.40
57030;DHT22;42920;45.306;20.448;2023-06-04T14:19:11;666.50;1638.40
57030;DHT22;42920;45.306;20.448;2023-06-04T14:21:37;691.20;1612.80
57030;DHT22;42920;45.306;20.448;2023-06-04T14:24:03;691.20;1638.40
57030;DHT22;42920;45.306;20.448;2023-06-04T14:26:29;666.50;1638.40
57030;DHT22;42920;45.306;20.448;2023-06-04T14:28:56;666.50;1664.00
57030;DHT22;42920;45.306;20.448;2023-06-04T14:31:22;666.50;1612.80
57030;DHT22;42920;45.306;20.448;2023-06-04T14:33:47;666.50;1638.40
57030;DHT22;42920;45.306;20.448;2023-06-04T14:36:13;666.20;1612.80
57030;DHT22;42920;45.306;20.448;2023-06-04T14:38:39;666.30;1664.00
57030;DHT22;42920;45.306;20.448;2023-06-04T14:41:05;666.40;1715.20
57030;DHT22;42920;45.306;20.448;2023-06-04T14:43:30;666.20;1689.60
57030;DHT22;42920;45.306;20.448;2023-06-04T14:45:56;665.90;1689.60
57030;DHT22;42920;45.306;20.448;2023-06-04T14:48:23;666.00;1715.20
57030;DHT22;42920;45.306;20.448;2023-06-04T14:50:49;666.10;1715.20